sensor_id;sensor_type;location;lat;lon;timestamp;P1;P2;P0
62631;PMS5003;48703;51.248;-0.546;2023-06-19T00:00:53;44.45;38.70;
62631;PMS5003;48703;51.248;-0.546;2023-06-19T00:03:54;44.81;39.41;
62631;PMS5003;48703;51.248;-0.546;2023-06-19T00:06:56;42.81;36.04;
62631;PMS5003;48703;51.248;-0.546;2023-06-19T00:09:57;43.82;39.16;
62631;PMS5003;48703;51.248;-0.546;2023-06-19T00:12:59;42.29;37.28;
62631;PMS5003;48703;51.248;-0.546;2023-06-19T00:16:01;39.75;35.16;
62631;PMS5003;48703;51.248;-0.546;2023-06-19T00:19:03;39.30;34.16;
62631;PMS5003;48703;51.248;-0.546;2023-06-19T00:22:04;37.71;34.48;
62631;PMS5003;48703;51.248;-0.546;2023-06-19T00:25:05;39.62;35.37;
62631;PMS5003;48703;51.248;-0.546;2023-06-19T00:28:06;37.48;33.69;
62631;PMS5003;48703;51.248;-0.546;2023-06-19T00:31:08;34.06;29.81;
62631;PMS5003;48703;51.248;-0.546;2023-06-19T00:34:09;32.86;30.39;
62631;PMS5003;48703;51.248;-0.546;2023-06-19T00:37:10;31.46;29.38;
62631;PMS5003;48703;51.248;-0.546;2023-06-19T00:40:13;35.72;31.91;
62631;PMS5003;48703;51.248;-0.546;2023-06-19T00:43:13;34.59;30.62;
62631;PMS5003;48703;51.248;-0.546;2023-06-19T00:46:15;34.39;31.74;
62631;PMS5003;48703;51.248;-0.546;2023-06-19T00:49:16;34.24;29.96;
62631;PMS5003;48703;51.248;-0.546;2023-06-19T00:52:18;31.28;28.91;
62631;PMS5003;48703;51.248;-0.546;2023-06-19T00:55:19;35.14;30.35;
62631;PMS5003;48703;51.248;-0.546;2023-06-19T00:58:21;31.41;28.10;
62631;PMS5003;48703;51.248;-0.546;2023-06-19T01:01:22;29.32;26.41;
62631;PMS5003;48703;51.248;-0.546;2023-06-19T01:04:23;28.37;25.14;
62631;PMS5003;48703;51.248;-0.546;2023-06-19T01:07:27;28.93;24.66;
62631;PMS5003;48703;51.248;-0.546;2023-06-19T01:10:27;27.94;25.22;
62631;PMS5003;48703;51.248;-0.546;2023-06-19T01:13:28;26.87;24.51;
62631;PMS5003;48703;51.248;-0.546;2023-06-19T01:16:29;28.74;25.63;
62631;PMS5003;48703;51.248;-0.546;2023-06-19T01:19:30;24.33;23.81;
62631;PMS5003;48703;51.248;-0.546;2023-06-19T01:22:31;26.01;24.78;
62631;PMS5003;48703;51.248;-0.546;2023-06-19T01:25:32;26.20;23.62;
62631;PMS5003;48703;51.248;-0.546;2023-06-19T01:28:34;27.07;24.54;
62631;PMS5003;48703;51.248;-0.546;2023-06-19T01:31:35;24.03;22.46;
62631;PMS5003;48703;51.248;-0.546;2023-06-19T01:34:36;25.76;22.26;
62631;PMS5003;48703;51.248;-0.546;2023-06-19T01:37:37;26.45;24.41;
62631;PMS5003;48703;51.248;-0.546;2023-06-19T01:40:39;26.71;22.31;
62631;PMS5003;48703;51.248;-0.546;2023-06-19T01:43:41;26.36;23.94;
62631;PMS5003;48703;51.248;-0.546;2023-06-19T01:46:42;24.12;21.71;
62631;PMS5003;48703;51.248;-0.546;2023-06-19T01:49:43;26.36;24.01;
62631;PMS5003;48703;51.248;-0.546;2023-06-19T01:52:44;24.83;22.91;
62631;PMS5003;48703;51.248;-0.546;2023-06-19T01:55:45;25.10;21.49;
62631;PMS5003;48703;51.248;-0.546;2023-06-19T01:58:46;23.83;20.88;
62631;PMS5003;48703;51.248;-0.546;2023-06-19T02:01:48;21.55;19.57;
62631;PMS5003;48703;51.248;-0.546;2023-06-19T02:04:49;24.38;22.29;
62631;PMS5003;48703;51.248;-0.546;2023-06-19T02:07:51;24.39;22.77;
62631;PMS5003;48703;51.248;-0.546;2023-06-19T02:10:52;27.17;23.51;
62631;PMS5003;48703;51.248;-0.546;2023-06-19T02:13:53;25.38;22.88;
62631;PMS5003;48703;51.248;-0.546;2023-06-19T02:16:55;23.11;21.81;
62631;PMS5003;48703;51.248;-0.546;2023-06-19T02:19:56;24.36;22.01;
62631;PMS5003;48703;51.248;-0.546;2023-06-19T02:22:57;24.54;22.00;
62631;PMS5003;48703;51.248;-0.546;2023-06-19T02:25:59;22.35;21.58;
62631;PMS5003;48703;51.248;-0.546;2023-06-19T02:29:00;24.36;21.91;
62631;PMS5003;48703;51.248;-0.546;2023-06-19T02:32:01;26.24;23.78;
62631;PMS5003;48703;51.248;-0.546;2023-06-19T02:35:04;26.59;23.23;
62631;PMS5003;48703;51.248;-0.546;2023-06-19T02:38:04;27.09;22.19;
62631;PMS5003;48703;51.248;-0.546;2023-06-19T02:41:06;23.94;22.90;
62631;PMS5003;48703;51.248;-0.546;2023-06-19T02:44:07;23.87;21.36;
62631;PMS5003;48703;51.248;-0.546;2023-06-19T02:47:08;23.91;22.19;
62631;PMS5003;48703;51.248;-0.546;2023-06-19T02:50:10;26.14;23.03;
62631;PMS5003;48703;51.248;-0.546;2023-06-19T02:53:11;22.72;20.00;
62631;PMS5003;48703;51.248;-0.546;2023-06-19T02:56:13;22.77;20.51;
62631;PMS5003;48703;51.248;-0.546;2023-06-19T02:59:14;23.39;19.65;
62631;PMS5003;48703;51.248;-0.546;2023-06-19T03:02:15;22.22;20.86;
62631;PMS5003;48703;51.248;-0.546;2023-06-19T03:05:16;26.70;22.33;
62631;PMS5003;48703;51.248;-0.546;2023-06-19T03:08:17;23.06;19.96;
62631;PMS5003;48703;51.248;-0.546;2023-06-19T03:11:18;22.04;19.51;
62631;PMS5003;48703;51.248;-0.546;2023-06-19T03:14:20;22.22;19.86;
62631;PMS5003;48703;51.248;-0.546;2023-06-19T03:17:21;25.03;20.97;
62631;PMS5003;48703;51.248;-0.546;2023-06-19T03:20:22;24.20;20.83;
62631;PMS5003;48703;51.248;-0.546;2023-06-19T03:23:23;25.47;21.91;
62631;PMS5003;48703;51.248;-0.546;2023-06-19T03:26:25;24.84;22.87;
62631;PMS5003;48703;51.248;-0.546;2023-06-19T03:29:26;25.12;23.65;
62631;PMS5003;48703;51.248;-0.546;2023-06-19T03:32:28;26.65;23.45;
62631;PMS5003;48703;51.248;-0.546;2023-06-19T03:35:30;26.59;23.54;
62631;PMS5003;48703;51.248;-0.546;2023-06-19T03:38:30;24.94;22.70;
62631;PMS5003;48703;51.248;-0.546;2023-06-19T03:41:32;24.80;21.45;
62631;PMS5003;48703;51.248;-0.546;2023-06-19T03:44:33;27.42;23.51;
62631;PMS5003;48703;51.248;-0.546;2023-06-19T03:47:34;22.45;21.13;
62631;PMS5003;48703;51.248;-0.546;2023-06-19T03:50:36;26.17;22.32;
62631;PMS5003;48703;51.248;-0.546;2023-06-19T03:53:36;24.58;22.33;
62631;PMS5003;48703;51.248;-0.546;2023-06-19T03:56:38;25.09;23.06;
62631;PMS5003;48703;51.248;-0.546;2023-06-19T03:59:40;24.35;21.62;
62631;PMS5003;48703;51.248;-0.546;2023-06-19T04:02:41;26.20;23.94;
62631;PMS5003;48703;51.248;-0.546;2023-06-19T04:05:42;27.99;24.32;
62631;PMS5003;48703;51.248;-0.546;2023-06-19T04:08:43;26.00;24.12;
62631;PMS5003;48703;51.248;-0.546;2023-06-19T04:11:44;24.01;22.68;
62631;PMS5003;48703;51.248;-0.546;2023-06-19T04:14:46;29.01;24.46;
62631;PMS5003;48703;51.248;-0.546;2023-06-19T04:17:47;25.71;22.66;
62631;PMS5003;48703;51.248;-0.546;2023-06-19T04:20:47;23.91;21.35;
62631;PMS5003;48703;51.248;-0.546;2023-06-19T04:23:48;23.90;22.03;
62631;PMS5003;48703;51.248;-0.546;2023-06-19T04:26:49;25.13;22.67;
62631;PMS5003;48703;51.248;-0.546;2023-06-19T04:29:51;25.87;21.11;
62631;PMS5003;48703;51.248;-0.546;2023-06-19T04:32:52;26.51;23.87;
62631;PMS5003;48703;51.248;-0.546;2023-06-19T04:35:54;24.51;21.03;
62631;PMS5003;48703;51.248;-0.546;2023-06-19T04:38:55;26.72;22.64;
62631;PMS5003;48703;51.248;-0.546;2023-06-19T04:41:58;28.30;23.62;
62631;PMS5003;48703;51.248;-0.546;2023-06-19T04:44:59;24.69;22.14;
62631;PMS5003;48703;51.248;-0.546;2023-06-19T04:48:01;27.28;23.39;
62631;PMS5003;48703;51.248;-0.546;2023-06-19T04:51:01;25.31;23.29;
62631;PMS5003;48703;51.248;-0.546;2023-06-19T04:54:03;25.75;24.13;
62631;PMS5003;48703;51.248;-0.546;2023-06-19T04:57:05;26.83;24.46;
62631;PMS5003;48703;51.248;-0.546;2023-06-19T05:00:07;29.51;24.84;
62631;PMS5003;48703;51.248;-0.546;2023-06-19T05:03:07;30.72;26.32;
62631;PMS5003;48703;51.248;-0.546;2023-06-19T05:06:09;25.56;23.07;
62631;PMS5003;48703;51.248;-0.546;2023-06-19T05:09:11;25.61;23.46;
62631;PMS5003;48703;51.248;-0.546;2023-06-19T05:12:12;30.19;27.06;
62631;PMS5003;48703;51.248;-0.546;2023-06-19T05:15:14;31.11;27.53;
62631;PMS5003;48703;51.248;-0.546;2023-06-19T05:18:16;29.44;26.64;
62631;PMS5003;48703;51.248;-0.546;2023-06-19T05:21:17;27.49;25.00;
62631;PMS5003;48703;51.248;-0.546;2023-06-19T05:24:19;32.07;28.30;
62631;PMS5003;48703;51.248;-0.546;2023-06-19T05:27:20;29.97;27.47;
62631;PMS5003;48703;51.248;-0.546;2023-06-19T05:30:22;29.87;25.57;
62631;PMS5003;48703;51.248;-0.546;2023-06-19T05:33:23;33.71;29.32;
62631;PMS5003;48703;51.248;-0.546;2023-06-19T05:36:25;28.76;25.20;
62631;PMS5003;48703;51.248;-0.546;2023-06-19T05:39:26;31.32;27.99;
62631;PMS5003;48703;51.248;-0.546;2023-06-19T05:42:27;28.75;26.65;
62631;PMS5003;48703;51.248;-0.546;2023-06-19T05:45:28;29.46;26.28;
62631;PMS5003;48703;51.248;-0.546;2023-06-19T05:48:29;26.97;24.14;
62631;PMS5003;48703;51.248;-0.546;2023-06-19T05:51:31;28.43;26.13;
62631;PMS5003;48703;51.248;-0.546;2023-06-19T05:54:32;26.35;23.46;
62631;PMS5003;48703;51.248;-0.546;2023-06-19T05:57:33;22.13;20.03;
62631;PMS5003;48703;51.248;-0.546;2023-06-19T06:00:34;24.47;22.04;
62631;PMS5003;48703;51.248;-0.546;2023-06-19T06:03:35;26.46;22.57;
62631;PMS5003;48703;51.248;-0.546;2023-06-19T06:06:37;26.41;22.75;
62631;PMS5003;48703;51.248;-0.546;2023-06-19T06:09:38;24.12;21.68;
62631;PMS5003;48703;51.248;-0.546;2023-06-19T06:12:39;22.38;19.23;
62631;PMS5003;48703;51.248;-0.546;2023-06-19T06:15:40;23.87;21.07;
62631;PMS5003;48703;51.248;-0.546;2023-06-19T06:18:41;19.69;18.54;
62631;PMS5003;48703;51.248;-0.546;2023-06-19T06:21:42;24.60;22.00;
62631;PMS5003;48703;51.248;-0.546;2023-06-19T06:24:43;20.66;19.24;
62631;PMS5003;48703;51.248;-0.546;2023-06-19T06:27:44;23.43;19.74;
62631;PMS5003;48703;51.248;-0.546;2023-06-19T06:30:46;20.97;19.72;
62631;PMS5003;48703;51.248;-0.546;2023-06-19T06:33:48;19.97;18.49;
62631;PMS5003;48703;51.248;-0.546;2023-06-19T06:36:49;22.43;19.71;
62631;PMS5003;48703;51.248;-0.546;2023-06-19T06:39:50;20.40;18.94;
62631;PMS5003;48703;51.248;-0.546;2023-06-19T06:42:51;19.14;17.26;
62631;PMS5003;48703;51.248;-0.546;2023-06-19T06:45:53;20.67;17.90;
62631;PMS5003;48703;51.248;-0.546;2023-06-19T06:48:55;21.64;17.31;
62631;PMS5003;48703;51.248;-0.546;2023-06-19T06:51:56;20.23;18.55;
62631;PMS5003;48703;51.248;-0.546;2023-06-19T06:54:57;20.67;16.83;
62631;PMS5003;48703;51.248;-0.546;2023-06-19T06:57:58;20.40;18.67;
62631;PMS5003;48703;51.248;-0.546;2023-06-19T07:01:00;22.88;19.67;
62631;PMS5003;48703;51.248;-0.546;2023-06-19T07:04:01;17.71;16.01;
62631;PMS5003;48703;51.248;-0.546;2023-06-19T07:07:02;19.36;16.13;
62631;PMS5003;48703;51.248;-0.546;2023-06-19T07:10:03;15.03;14.36;
62631;PMS5003;48703;51.248;-0.546;2023-06-19T07:13:04;17.59;14.60;
62631;PMS5003;48703;51.248;-0.546;2023-06-19T07:16:04;17.81;15.36;
62631;PMS5003;48703;51.248;-0.546;2023-06-19T07:19:06;18.29;15.41;
62631;PMS5003;48703;51.248;-0.546;2023-06-19T07:22:06;16.96;14.87;
62631;PMS5003;48703;51.248;-0.546;2023-06-19T07:25:09;16.94;13.54;
62631;PMS5003;48703;51.248;-0.546;2023-06-19T07:28:09;15.30;14.90;
62631;PMS5003;48703;51.248;-0.546;2023-06-19T07:31:10;16.41;15.41;
62631;PMS5003;48703;51.248;-0.546;2023-06-19T07:34:12;19.41;14.83;
62631;PMS5003;48703;51.248;-0.546;2023-06-19T07:37:13;15.43;14.36;
62631;PMS5003;48703;51.248;-0.546;2023-06-19T07:40:14;17.46;14.63;
62631;PMS5003;48703;51.248;-0.546;2023-06-19T07:43:16;15.80;13.84;
62631;PMS5003;48703;51.248;-0.546;2023-06-19T07:46:17;15.71;13.84;
62631;PMS5003;48703;51.248;-0.546;2023-06-19T07:49:18;14.30;13.47;
62631;PMS5003;48703;51.248;-0.546;2023-06-19T07:52:19;14.51;13.06;
62631;PMS5003;48703;51.248;-0.546;2023-06-19T07:55:21;12.30;11.34;
62631;PMS5003;48703;51.248;-0.546;2023-06-19T07:58:22;14.91;12.10;
62631;PMS5003;48703;51.248;-0.546;2023-06-19T08:01:23;17.03;13.87;
62631;PMS5003;48703;51.248;-0.546;2023-06-19T08:04:24;15.50;11.93;
62631;PMS5003;48703;51.248;-0.546;2023-06-19T08:07:25;13.83;12.83;
62631;PMS5003;48703;51.248;-0.546;2023-06-19T08:10:26;16.77;13.23;
62631;PMS5003;48703;51.248;-0.546;2023-06-19T08:13:27;15.54;14.46;
62631;PMS5003;48703;51.248;-0.546;2023-06-19T08:16:29;14.43;12.40;
62631;PMS5003;48703;51.248;-0.546;2023-06-19T08:19:30;14.72;13.41;
62631;PMS5003;48703;51.248;-0.546;2023-06-19T08:22:31;13.43;12.06;
62631;PMS5003;48703;51.248;-0.546;2023-06-19T08:25:32;16.23;13.67;
62631;PMS5003;48703;51.248;-0.546;2023-06-19T08:28:34;13.80;12.09;
62631;PMS5003;48703;51.248;-0.546;2023-06-19T08:31:35;15.99;12.91;
62631;PMS5003;48703;51.248;-0.546;2023-06-19T08:34:36;16.04;13.99;
62631;PMS5003;48703;51.248;-0.546;2023-06-19T08:37:38;13.00;11.27;
62631;PMS5003;48703;51.248;-0.546;2023-06-19T08:40:41;14.14;13.09;
62631;PMS5003;48703;51.248;-0.546;2023-06-19T08:43:40;13.80;13.14;
62631;PMS5003;48703;51.248;-0.546;2023-06-19T08:46:42;14.79;12.47;
62631;PMS5003;48703;51.248;-0.546;2023-06-19T08:49:43;14.53;12.99;
62631;PMS5003;48703;51.248;-0.546;2023-06-19T08:52:44;12.57;11.10;
62631;PMS5003;48703;51.248;-0.546;2023-06-19T08:55:45;12.94;12.49;
62631;PMS5003;48703;51.248;-0.546;2023-06-19T08:58:46;12.93;11.59;
62631;PMS5003;48703;51.248;-0.546;2023-06-19T09:01:48;12.23;11.83;
62631;PMS5003;48703;51.248;-0.546;2023-06-19T09:04:49;14.57;13.31;
62631;PMS5003;48703;51.248;-0.546;2023-06-19T09:07:54;12.56;11.43;
62631;PMS5003;48703;51.248;-0.546;2023-06-19T09:10:55;15.80;14.28;
62631;PMS5003;48703;51.248;-0.546;2023-06-19T09:13:55;12.99;12.96;
62631;PMS5003;48703;51.248;-0.546;2023-06-19T09:16:54;14.39;12.57;
62631;PMS5003;48703;51.248;-0.546;2023-06-19T09:19:55;14.43;13.65;
62631;PMS5003;48703;51.248;-0.546;2023-06-19T09:22:57;14.93;12.49;
62631;PMS5003;48703;51.248;-0.546;2023-06-19T09:25:57;12.46;11.67;
62631;PMS5003;48703;51.248;-0.546;2023-06-19T09:29:09;13.26;11.16;
62631;PMS5003;48703;51.248;-0.546;2023-06-19T09:32:00;11.91;11.50;
62631;PMS5003;48703;51.248;-0.546;2023-06-19T09:35:01;13.55;11.94;
62631;PMS5003;48703;51.248;-0.546;2023-06-19T09:38:02;11.66;11.09;
62631;PMS5003;48703;51.248;-0.546;2023-06-19T09:41:04;11.96;10.61;
62631;PMS5003;48703;51.248;-0.546;2023-06-19T09:44:05;11.84;11.03;
62631;PMS5003;48703;51.248;-0.546;2023-06-19T09:47:07;11.96;11.96;
62631;PMS5003;48703;51.248;-0.546;2023-06-19T09:50:08;12.70;11.09;
62631;PMS5003;48703;51.248;-0.546;2023-06-19T09:53:09;13.46;11.24;
62631;PMS5003;48703;51.248;-0.546;2023-06-19T09:56:11;13.91;12.74;
62631;PMS5003;48703;51.248;-0.546;2023-06-19T09:59:11;13.17;12.36;
62631;PMS5003;48703;51.248;-0.546;2023-06-19T10:02:13;14.63;11.90;
62631;PMS5003;48703;51.248;-0.546;2023-06-19T10:05:14;13.16;12.36;
62631;PMS5003;48703;51.248;-0.546;2023-06-19T10:08:25;11.91;11.51;
62631;PMS5003;48703;51.248;-0.546;2023-06-19T10:11:17;13.49;12.60;
62631;PMS5003;48703;51.248;-0.546;2023-06-19T10:14:18;16.96;14.63;
62631;PMS5003;48703;51.248;-0.546;2023-06-19T10:17:19;11.86;11.23;
62631;PMS5003;48703;51.248;-0.546;2023-06-19T10:20:21;14.28;13.88;
62631;PMS5003;48703;51.248;-0.546;2023-06-19T10:23:22;15.10;13.39;
62631;PMS5003;48703;51.248;-0.546;2023-06-19T10:26:30;15.09;12.94;
62631;PMS5003;48703;51.248;-0.546;2023-06-19T10:29:23;12.54;11.13;
62631;PMS5003;48703;51.248;-0.546;2023-06-19T10:32:25;12.50;12.21;
62631;PMS5003;48703;51.248;-0.546;2023-06-19T10:35:26;11.16;10.41;
62631;PMS5003;48703;51.248;-0.546;2023-06-19T10:38:27;12.96;11.46;
62631;PMS5003;48703;51.248;-0.546;2023-06-19T10:41:29;11.50;11.01;
62631;PMS5003;48703;51.248;-0.546;2023-06-19T10:44:30;13.14;12.67;
62631;PMS5003;48703;51.248;-0.546;2023-06-19T10:47:31;14.06;13.11;
62631;PMS5003;48703;51.248;-0.546;2023-06-19T10:50:34;11.40;10.97;
62631;PMS5003;48703;51.248;-0.546;2023-06-19T10:53:34;13.61;13.16;
62631;PMS5003;48703;51.248;-0.546;2023-06-19T10:56:35;14.12;12.59;
62631;PMS5003;48703;51.248;-0.546;2023-06-19T10:59:36;12.11;11.09;
62631;PMS5003;48703;51.248;-0.546;2023-06-19T11:02:38;12.54;11.84;
62631;PMS5003;48703;51.248;-0.546;2023-06-19T11:05:42;13.37;12.57;
62631;PMS5003;48703;51.248;-0.546;2023-06-19T11:08:40;13.21;12.13;
62631;PMS5003;48703;51.248;-0.546;2023-06-19T11:11:42;13.07;12.59;
62631;PMS5003;48703;51.248;-0.546;2023-06-19T11:14:43;12.31;10.91;
62631;PMS5003;48703;51.248;-0.546;2023-06-19T11:17:44;12.27;11.10;
62631;PMS5003;48703;51.248;-0.546;2023-06-19T11:20:46;11.69;11.34;
62631;PMS5003;48703;51.248;-0.546;2023-06-19T11:23:47;11.54;10.59;
62631;PMS5003;48703;51.248;-0.546;2023-06-19T11:26:48;10.65;9.39;
62631;PMS5003;48703;51.248;-0.546;2023-06-19T11:29:54;10.36;9.67;
62631;PMS5003;48703;51.248;-0.546;2023-06-19T11:32:51;12.06;10.13;
62631;PMS5003;48703;51.248;-0.546;2023-06-19T11:35:52;10.73;10.73;
62631;PMS5003;48703;51.248;-0.546;2023-06-19T11:38:53;10.99;10.64;
62631;PMS5003;48703;51.248;-0.546;2023-06-19T11:41:55;11.37;10.69;
62631;PMS5003;48703;51.248;-0.546;2023-06-19T11:44:56;12.70;11.07;
62631;PMS5003;48703;51.248;-0.546;2023-06-19T11:47:57;10.56;9.93;
62631;PMS5003;48703;51.248;-0.546;2023-06-19T11:50:59;11.34;10.09;
62631;PMS5003;48703;51.248;-0.546;2023-06-19T11:54:00;11.54;11.10;
62631;PMS5003;48703;51.248;-0.546;2023-06-19T11:57:01;11.74;10.40;
62631;PMS5003;48703;51.248;-0.546;2023-06-19T12:00:03;10.19;9.07;
62631;PMS5003;48703;51.248;-0.546;2023-06-19T12:03:04;10.36;9.64;
62631;PMS5003;48703;51.248;-0.546;2023-06-19T12:06:05;11.93;10.69;
62631;PMS5003;48703;51.248;-0.546;2023-06-19T12:09:07;11.30;9.23;
62631;PMS5003;48703;51.248;-0.546;2023-06-19T12:12:08;10.73;9.79;
62631;PMS5003;48703;51.248;-0.546;2023-06-19T12:15:09;9.26;9.26;
62631;PMS5003;48703;51.248;-0.546;2023-06-19T12:18:11;12.24;10.57;
62631;PMS5003;48703;51.248;-0.546;2023-06-19T12:21:12;9.71;9.03;
62631;PMS5003;48703;51.248;-0.546;2023-06-19T12:24:13;10.44;9.66;
62631;PMS5003;48703;51.248;-0.546;2023-06-19T12:27:15;9.03;8.66;
62631;PMS5003;48703;51.248;-0.546;2023-06-19T12:30:16;8.39;8.39;
62631;PMS5003;48703;51.248;-0.546;2023-06-19T12:33:17;8.09;7.80;
62631;PMS5003;48703;51.248;-0.546;2023-06-19T12:36:19;10.33;9.73;
62631;PMS5003;48703;51.248;-0.546;2023-06-19T12:39:20;9.17;8.46;
62631;PMS5003;48703;51.248;-0.546;2023-06-19T12:42:21;10.23;9.03;
62631;PMS5003;48703;51.248;-0.546;2023-06-19T12:45:23;10.45;9.07;
62631;PMS5003;48703;51.248;-0.546;2023-06-19T12:48:24;7.03;7.03;
62631;PMS5003;48703;51.248;-0.546;2023-06-19T12:51:26;7.29;6.50;
62631;PMS5003;48703;51.248;-0.546;2023-06-19T12:54:27;8.61;8.30;
62631;PMS5003;48703;51.248;-0.546;2023-06-19T12:57:28;8.47;7.70;
62631;PMS5003;48703;51.248;-0.546;2023-06-19T13:00:29;8.86;8.60;
62631;PMS5003;48703;51.248;-0.546;2023-06-19T13:03:31;10.90;9.13;
62631;PMS5003;48703;51.248;-0.546;2023-06-19T13:06:32;9.24;8.09;
62631;PMS5003;48703;51.248;-0.546;2023-06-19T13:09:33;8.73;7.70;
62631;PMS5003;48703;51.248;-0.546;2023-06-19T13:12:35;10.50;9.07;
62631;PMS5003;48703;51.248;-0.546;2023-06-19T13:15:36;7.91;7.14;
62631;PMS5003;48703;51.248;-0.546;2023-06-19T13:18:37;7.04;6.53;
62631;PMS5003;48703;51.248;-0.546;2023-06-19T13:21:38;6.24;5.89;
62631;PMS5003;48703;51.248;-0.546;2023-06-19T13:24:40;6.26;6.16;
62631;PMS5003;48703;51.248;-0.546;2023-06-19T13:27:41;6.80;6.00;
62631;PMS5003;48703;51.248;-0.546;2023-06-19T13:30:42;9.61;7.84;
62631;PMS5003;48703;51.248;-0.546;2023-06-19T13:33:44;7.40;6.81;
62631;PMS5003;48703;51.248;-0.546;2023-06-19T13:36:45;7.06;6.80;
62631;PMS5003;48703;51.248;-0.546;2023-06-19T13:39:47;7.91;6.53;
62631;PMS5003;48703;51.248;-0.546;2023-06-19T13:42:48;6.23;5.57;
62631;PMS5003;48703;51.248;-0.546;2023-06-19T13:45:49;6.14;6.00;
62631;PMS5003;48703;51.248;-0.546;2023-06-19T13:48:51;6.23;5.93;
62631;PMS5003;48703;51.248;-0.546;2023-06-19T13:51:52;6.56;6.11;
62631;PMS5003;48703;51.248;-0.546;2023-06-19T13:54:53;5.99;4.89;
62631;PMS5003;48703;51.248;-0.546;2023-06-19T13:57:55;5.63;5.16;
62631;PMS5003;48703;51.248;-0.546;2023-06-19T14:00:56;4.46;4.06;
62631;PMS5003;48703;51.248;-0.546;2023-06-19T14:03:57;5.69;5.69;
62631;PMS5003;48703;51.248;-0.546;2023-06-19T14:06:58;5.74;5.26;
62631;PMS5003;48703;51.248;-0.546;2023-06-19T14:10:00;5.37;4.90;
62631;PMS5003;48703;51.248;-0.546;2023-06-19T14:13:01;5.19;4.96;
62631;PMS5003;48703;51.248;-0.546;2023-06-19T14:16:02;4.13;4.07;
62631;PMS5003;48703;51.248;-0.546;2023-06-19T14:19:04;4.13;4.13;
62631;PMS5003;48703;51.248;-0.546;2023-06-19T14:22:05;4.51;4.13;
62631;PMS5003;48703;51.248;-0.546;2023-06-19T14:25:07;4.80;3.79;
62631;PMS5003;48703;51.248;-0.546;2023-06-19T14:28:08;5.79;4.69;
62631;PMS5003;48703;51.248;-0.546;2023-06-19T14:31:09;4.76;4.06;
62631;PMS5003;48703;51.248;-0.546;2023-06-19T14:34:10;3.94;3.94;
62631;PMS5003;48703;51.248;-0.546;2023-06-19T14:37:12;5.03;4.61;
62631;PMS5003;48703;51.248;-0.546;2023-06-19T14:40:13;5.93;4.69;
62631;PMS5003;48703;51.248;-0.546;2023-06-19T14:43:14;5.64;4.34;
62631;PMS5003;48703;51.248;-0.546;2023-06-19T14:46:16;5.27;4.03;
62631;PMS5003;48703;51.248;-0.546;2023-06-19T14:49:17;4.33;3.94;
62631;PMS5003;48703;51.248;-0.546;2023-06-19T14:52:18;5.89;4.90;
62631;PMS5003;48703;51.248;-0.546;2023-06-19T14:55:20;3.69;3.53;
62631;PMS5003;48703;51.248;-0.546;2023-06-19T14:58:21;4.43;3.47;
62631;PMS5003;48703;51.248;-0.546;2023-06-19T15:01:22;4.13;4.13;
62631;PMS5003;48703;51.248;-0.546;2023-06-19T15:04:23;5.27;4.64;
62631;PMS5003;48703;51.248;-0.546;2023-06-19T15:07:25;3.73;3.73;
62631;PMS5003;48703;51.248;-0.546;2023-06-19T15:10:26;5.11;4.47;
62631;PMS5003;48703;51.248;-0.546;2023-06-19T15:13:27;4.53;3.97;
62631;PMS5003;48703;51.248;-0.546;2023-06-19T15:16:28;5.14;4.37;
62631;PMS5003;48703;51.248;-0.546;2023-06-19T15:19:30;3.97;3.97;
62631;PMS5003;48703;51.248;-0.546;2023-06-19T15:22:31;4.06;3.54;
62631;PMS5003;48703;51.248;-0.546;2023-06-19T15:25:32;4.46;4.23;
62631;PMS5003;48703;51.248;-0.546;2023-06-19T15:28:34;4.61;3.31;
62631;PMS5003;48703;51.248;-0.546;2023-06-19T15:31:35;3.14;3.14;
62631;PMS5003;48703;51.248;-0.546;2023-06-19T15:34:36;6.14;5.71;
62631;PMS5003;48703;51.248;-0.546;2023-06-19T15:37:38;4.54;3.54;
62631;PMS5003;48703;51.248;-0.546;2023-06-19T15:40:39;4.49;4.31;
62631;PMS5003;48703;51.248;-0.546;2023-06-19T15:43:40;4.87;4.87;
62631;PMS5003;48703;51.248;-0.546;2023-06-19T15:46:41;2.97;2.97;
62631;PMS5003;48703;51.248;-0.546;2023-06-19T15:49:43;3.17;3.09;
62631;PMS5003;48703;51.248;-0.546;2023-06-19T15:52:44;4.74;4.10;
62631;PMS5003;48703;51.248;-0.546;2023-06-19T15:55:45;3.96;3.67;
62631;PMS5003;48703;51.248;-0.546;2023-06-19T15:58:47;2.90;2.90;
62631;PMS5003;48703;51.248;-0.546;2023-06-19T16:01:48;3.51;3.26;
62631;PMS5003;48703;51.248;-0.546;2023-06-19T16:04:49;4.56;3.53;
62631;PMS5003;48703;51.248;-0.546;2023-06-19T16:07:51;4.09;3.51;
62631;PMS5003;48703;51.248;-0.546;2023-06-19T16:10:52;3.83;3.79;
62631;PMS5003;48703;51.248;-0.546;2023-06-19T16:13:53;3.84;3.84;
62631;PMS5003;48703;51.248;-0.546;2023-06-19T16:16:54;3.10;2.64;
62631;PMS5003;48703;51.248;-0.546;2023-06-19T16:19:56;4.26;3.26;
62631;PMS5003;48703;51.248;-0.546;2023-06-19T16:22:57;3.27;3.17;
62631;PMS5003;48703;51.248;-0.546;2023-06-19T16:25:58;3.83;3.23;
62631;PMS5003;48703;51.248;-0.546;2023-06-19T16:29:00;4.03;3.43;
62631;PMS5003;48703;51.248;-0.546;2023-06-19T16:32:01;2.77;2.39;
62631;PMS5003;48703;51.248;-0.546;2023-06-19T16:35:03;4.11;3.91;
62631;PMS5003;48703;51.248;-0.546;2023-06-19T16:38:03;2.97;2.71;
62631;PMS5003;48703;51.248;-0.546;2023-06-19T16:41:05;2.39;2.39;
62631;PMS5003;48703;51.248;-0.546;2023-06-19T16:44:06;3.34;2.53;
62631;PMS5003;48703;51.248;-0.546;2023-06-19T16:47:07;3.56;3.33;
62631;PMS5003;48703;51.248;-0.546;2023-06-19T16:50:09;4.49;3.71;
62631;PMS5003;48703;51.248;-0.546;2023-06-19T16:53:10;2.39;2.34;
62631;PMS5003;48703;51.248;-0.546;2023-06-19T16:56:11;3.37;2.99;
62631;PMS5003;48703;51.248;-0.546;2023-06-19T16:59:13;3.59;3.37;
62631;PMS5003;48703;51.248;-0.546;2023-06-19T17:02:14;3.69;3.69;
62631;PMS5003;48703;51.248;-0.546;2023-06-19T17:05:15;2.70;2.70;
62631;PMS5003;48703;51.248;-0.546;2023-06-19T17:08:16;3.03;2.61;
62631;PMS5003;48703;51.248;-0.546;2023-06-19T17:11:18;3.79;3.39;
62631;PMS5003;48703;51.248;-0.546;2023-06-19T17:14:19;2.97;2.91;
62631;PMS5003;48703;51.248;-0.546;2023-06-19T17:17:20;3.40;2.76;
62631;PMS5003;48703;51.248;-0.546;2023-06-19T17:20:22;3.61;3.61;
62631;PMS5003;48703;51.248;-0.546;2023-06-19T17:23:23;3.64;2.83;
62631;PMS5003;48703;51.248;-0.546;2023-06-19T17:26:24;4.60;3.90;
62631;PMS5003;48703;51.248;-0.546;2023-06-19T17:29:26;4.46;3.13;
62631;PMS5003;48703;51.248;-0.546;2023-06-19T17:32:27;2.61;2.43;
62631;PMS5003;48703;51.248;-0.546;2023-06-19T17:35:28;3.89;3.46;
62631;PMS5003;48703;51.248;-0.546;2023-06-19T17:38:29;3.77;2.91;
62631;PMS5003;48703;51.248;-0.546;2023-06-19T17:41:31;3.44;3.27;
62631;PMS5003;48703;51.248;-0.546;2023-06-19T17:44:32;3.57;3.57;
62631;PMS5003;48703;51.248;-0.546;2023-06-19T17:47:33;3.00;2.74;
62631;PMS5003;48703;51.248;-0.546;2023-06-19T17:50:35;2.81;2.54;
62631;PMS5003;48703;51.248;-0.546;2023-06-19T17:53:36;2.67;2.59;
62631;PMS5003;48703;51.248;-0.546;2023-06-19T17:56:37;4.43;3.47;
62631;PMS5003;48703;51.248;-0.546;2023-06-19T17:59:39;4.10;2.54;
62631;PMS5003;48703;51.248;-0.546;2023-06-19T18:02:40;4.01;4.01;
62631;PMS5003;48703;51.248;-0.546;2023-06-19T18:05:41;4.33;3.54;